createdAt,value
2023-11-23T00:00:11.923Z,9.26
2023-11-23T00:02:40.083Z,9.30
2023-11-23T00:05:09.159Z,9.32
2023-11-23T00:07:36.359Z,9.35
2023-11-23T00:10:04.198Z,9.39
2023-11-23T00:12:31.284Z,9.42
2023-11-23T00:14:58.133Z,9.45
2023-11-23T00:17:24.962Z,9.49
2023-11-23T00:19:51.756Z,9.53
2023-11-23T00:22:18.586Z,9.56
2023-11-23T00:24:46.330Z,9.57
2023-11-23T00:27:16.101Z,9.59
2023-11-23T00:29:43.366Z,9.61
2023-11-23T00:32:10.204Z,9.64
2023-11-23T00:34:37.053Z,9.66
2023-11-23T00:37:04.169Z,9.70
2023-11-23T00:39:31.010Z,9.71
2023-11-23T00:41:57.841Z,9.74
2023-11-23T00:44:24.832Z,9.76
2023-11-23T00:46:52.522Z,9.79
2023-11-23T00:49:20.499Z,9.81
2023-11-23T00:51:47.299Z,9.84
2023-11-23T00:54:14.142Z,9.86
2023-11-23T00:56:41.763Z,9.88
2023-11-23T00:59:08.622Z,9.91
2023-11-23T01:01:35.533Z,9.92
2023-11-23T01:04:02.689Z,9.93
2023-11-23T01:06:29.552Z,9.95
2023-11-23T01:08:56.382Z,9.97
2023-11-23T01:11:25.077Z,10.00
2023-11-23T01:13:52.046Z,10.02
2023-11-23T01:16:18.936Z,10.04
2023-11-23T01:18:45.921Z,10.05
2023-11-23T01:21:12.781Z,10.07
2023-11-23T01:23:39.643Z,10.09
2023-11-23T01:26:06.991Z,10.11
2023-11-23T01:28:33.799Z,10.12
2023-11-23T01:31:00.615Z,10.15
2023-11-23T01:33:27.541Z,10.17
2023-11-23T01:35:54.502Z,10.18
2023-11-23T01:38:21.757Z,10.20
2023-11-23T01:40:48.621Z,10.22
2023-11-23T01:43:20.479Z,10.22
2023-11-23T01:45:47.555Z,10.23
2023-11-23T01:48:16.027Z,10.23
2023-11-23T01:50:44.153Z,10.24
2023-11-23T01:53:12.820Z,10.25
2023-11-23T01:55:39.778Z,10.25
2023-11-23T01:58:09.834Z,10.25
2023-11-23T02:00:37.944Z,10.24
2023-11-23T02:03:06.031Z,10.23
2023-11-23T02:05:33.007Z,10.23
2023-11-23T02:07:59.789Z,10.23
2023-11-23T02:10:26.717Z,10.25
2023-11-23T02:12:55.077Z,10.26
2023-11-23T02:15:23.214Z,10.27
2023-11-23T02:18:04.885Z,10.29
2023-11-23T02:20:32.626Z,10.29
2023-11-23T02:23:01.056Z,10.31
2023-11-23T02:25:28.684Z,10.32
2023-11-23T02:27:55.627Z,10.35
2023-11-23T02:30:22.994Z,10.38
2023-11-23T02:32:51.322Z,10.38
2023-11-23T02:35:21.564Z,10.40
2023-11-23T02:37:48.584Z,10.41
2023-11-23T02:40:16.096Z,10.43
2023-11-23T02:42:45.751Z,10.45
2023-11-23T02:45:13.967Z,10.45
2023-11-23T02:47:41.024Z,10.48
2023-11-23T02:50:08.328Z,10.50
2023-11-23T02:52:35.186Z,10.51
2023-11-23T02:55:02.054Z,10.52
2023-11-23T02:57:28.946Z,10.52
2023-11-23T02:59:56.547Z,10.52
2023-11-23T03:02:23.469Z,10.52
2023-11-23T03:04:50.357Z,10.53
2023-11-23T03:07:18.783Z,10.55
2023-11-23T03:09:45.626Z,10.56
2023-11-23T03:12:12.526Z,10.57
2023-11-23T03:14:39.499Z,10.60
2023-11-23T03:17:07.532Z,10.63
2023-11-23T03:19:34.406Z,10.64
2023-11-23T03:22:01.292Z,10.66
2023-11-23T03:24:28.231Z,10.68
2023-11-23T03:26:55.148Z,10.67
2023-11-23T03:29:22.034Z,10.68
2023-11-23T03:31:48.978Z,10.67
2023-11-23T03:34:15.987Z,10.65
2023-11-23T03:36:42.845Z,10.65
2023-11-23T03:39:09.825Z,10.64
2023-11-23T03:41:36.712Z,10.64
2023-11-23T03:44:03.529Z,10.64
2023-11-23T03:46:30.346Z,10.63
2023-11-23T03:48:57.509Z,10.64
2023-11-23T03:51:27.600Z,10.66
2023-11-23T03:53:55.159Z,10.65
2023-11-23T03:56:22.070Z,10.65
2023-11-23T03:58:49.076Z,10.66
2023-11-23T04:01:16.062Z,10.68
2023-11-23T04:03:46.297Z,10.67
2023-11-23T04:06:14.209Z,10.68
2023-11-23T04:08:41.415Z,10.70
2023-11-23T04:11:10.529Z,10.71
2023-11-23T04:13:37.481Z,10.70
2023-11-23T04:16:04.816Z,10.74
2023-11-23T04:18:31.738Z,10.74
2023-11-23T04:20:58.712Z,10.77
2023-11-23T04:23:25.584Z,10.78
2023-11-23T04:25:52.442Z,10.81
2023-11-23T04:28:19.345Z,10.83
2023-11-23T04:30:46.267Z,10.86
2023-11-23T04:33:13.191Z,10.86
2023-11-23T04:35:40.147Z,10.89
2023-11-23T04:38:06.993Z,10.90
2023-11-23T04:40:33.931Z,10.91
2023-11-23T04:43:00.797Z,10.92
2023-11-23T04:45:27.711Z,10.93
2023-11-23T04:47:54.778Z,10.95
2023-11-23T04:50:22.630Z,10.96
2023-11-23T04:52:49.744Z,10.98
2023-11-23T04:55:16.628Z,11.00
2023-11-23T04:57:43.446Z,11.01
2023-11-23T05:00:12.078Z,11.04
2023-11-23T05:02:44.230Z,11.05
2023-11-23T05:05:14.514Z,11.06
2023-11-23T05:07:41.695Z,11.08
2023-11-23T05:10:09.584Z,11.09
2023-11-23T05:12:37.693Z,11.13
2023-11-23T05:15:06.216Z,11.14
2023-11-23T05:17:33.592Z,11.16
2023-11-23T05:20:00.819Z,11.18
2023-11-23T05:22:27.815Z,11.18
2023-11-23T05:24:54.734Z,11.20
2023-11-23T05:27:22.146Z,11.22
2023-11-23T05:29:51.502Z,11.24
2023-11-23T05:32:19.437Z,11.26
2023-11-23T05:34:46.563Z,11.29
2023-11-23T05:37:13.519Z,11.30
2023-11-23T05:39:43.584Z,11.31
2023-11-23T05:42:11.974Z,11.33
2023-11-23T05:44:39.137Z,11.35
2023-11-23T05:47:06.406Z,11.36
2023-11-23T05:49:33.304Z,11.39
2023-11-23T05:52:00.311Z,11.40
2023-11-23T05:54:27.348Z,11.43
2023-11-23T05:56:54.279Z,11.44
2023-11-23T05:59:21.654Z,11.46
2023-11-23T06:01:48.647Z,11.46
2023-11-23T06:04:15.695Z,11.47
2023-11-23T06:06:42.643Z,11.50
2023-11-23T06:09:12.372Z,11.53
2023-11-23T06:11:39.305Z,11.56
2023-11-23T06:14:06.301Z,11.58
2023-11-23T06:16:33.212Z,11.62
2023-11-23T06:19:03.484Z,11.63
2023-11-23T06:21:31.413Z,11.66
2023-11-23T06:23:59.624Z,11.68
2023-11-23T06:26:26.611Z,11.71
2023-11-23T06:28:53.436Z,11.75
2023-11-23T06:31:20.386Z,11.78
2023-11-23T06:33:47.418Z,11.80
2023-11-23T06:36:14.388Z,11.83
2023-11-23T06:38:41.334Z,11.85
2023-11-23T06:41:21.718Z,11.90
2023-11-23T06:43:50.014Z,11.93
2023-11-23T06:46:21.367Z,11.97
2023-11-23T06:48:48.507Z,12.00
2023-11-23T06:51:15.539Z,12.04
2023-11-23T06:53:46.309Z,12.06
2023-11-23T06:56:17.629Z,12.09
2023-11-23T06:58:47.672Z,12.11
2023-11-23T07:01:18.430Z,12.14
2023-11-23T07:03:45.517Z,12.14
2023-11-23T07:06:14.830Z,12.16
2023-11-23T07:08:41.896Z,12.18
2023-11-23T07:11:09.195Z,12.20
2023-11-23T07:13:36.690Z,12.21
2023-11-23T07:16:04.242Z,12.24
2023-11-23T07:18:31.421Z,12.26
2023-11-23T07:20:58.722Z,12.27
2023-11-23T07:23:26.334Z,12.30
2023-11-23T07:25:53.916Z,12.33
2023-11-23T07:28:28.202Z,12.35
2023-11-23T07:30:58.591Z,12.37
2023-11-23T07:33:30.394Z,12.38
2023-11-23T07:35:57.738Z,12.39
2023-11-23T07:38:24.602Z,12.43
2023-11-23T07:40:51.459Z,12.44
2023-11-23T07:43:18.354Z,12.45
2023-11-23T07:45:45.197Z,12.48
2023-11-23T07:48:15.135Z,12.49
2023-11-23T07:50:42.267Z,12.49
2023-11-23T07:53:09.291Z,12.51
2023-11-23T07:55:36.358Z,12.54
2023-11-23T07:58:03.257Z,12.55
2023-11-23T08:00:30.537Z,12.57
2023-11-23T08:02:57.564Z,12.62
2023-11-23T08:05:24.822Z,12.64
2023-11-23T08:07:51.753Z,12.66
2023-11-23T08:10:18.692Z,12.68
2023-11-23T08:12:45.755Z,12.72
2023-11-23T08:15:13.940Z,12.76
2023-11-23T08:17:50.993Z,12.79
2023-11-23T08:20:27.754Z,12.84
2023-11-23T08:22:54.891Z,12.90
2023-11-23T08:25:22.147Z,12.92
2023-11-23T08:27:48.973Z,12.99
2023-11-23T08:30:16.762Z,13.04
2023-11-23T08:32:43.797Z,13.08
2023-11-23T08:35:10.830Z,13.11
2023-11-23T08:37:38.396Z,13.16
2023-11-23T08:40:07.862Z,13.19
2023-11-23T08:42:34.850Z,13.24
2023-11-23T08:45:02.143Z,13.26
2023-11-23T08:47:29.200Z,13.28
2023-11-23T08:49:56.542Z,13.32
2023-11-23T08:52:23.713Z,13.35
2023-11-23T08:54:50.754Z,13.37
2023-11-23T08:57:17.834Z,13.39
2023-11-23T08:59:44.722Z,13.41
2023-11-23T09:02:19.836Z,13.43
2023-11-23T09:04:49.584Z,13.45
2023-11-23T09:07:17.232Z,13.47
2023-11-23T09:09:44.197Z,13.50
2023-11-23T09:12:11.107Z,13.51
2023-11-23T09:14:46.850Z,13.55
2023-11-23T09:17:20.352Z,13.57
2023-11-23T09:19:48.287Z,13.60
2023-11-23T09:22:15.410Z,13.63
2023-11-23T09:24:42.421Z,13.66
2023-11-23T09:27:10.642Z,13.69
2023-11-23T09:29:37.723Z,13.72
2023-11-23T09:32:06.254Z,13.76
2023-11-23T09:34:33.076Z,13.79
2023-11-23T09:36:59.918Z,13.81
2023-11-23T09:39:29.024Z,13.85
2023-11-23T09:41:58.867Z,13.88
2023-11-23T09:44:29.426Z,13.89
2023-11-23T09:46:57.513Z,13.92
2023-11-23T09:49:25.808Z,13.93
2023-11-23T09:51:56.648Z,13.97
2023-11-23T09:54:27.642Z,13.98
2023-11-23T09:56:55.075Z,13.99
2023-11-23T09:59:22.586Z,14.02
2023-11-23T10:01:54.094Z,14.03
2023-11-23T10:04:22.000Z,14.06
2023-11-23T10:06:48.885Z,14.07
2023-11-23T10:09:17.150Z,14.09
2023-11-23T10:11:44.407Z,14.12
2023-11-23T10:14:12.737Z,14.13
2023-11-23T10:16:39.797Z,14.15
2023-11-23T10:19:06.908Z,14.17
2023-11-23T10:21:33.872Z,14.20
2023-11-23T10:24:09.175Z,14.21
2023-11-23T10:26:36.371Z,14.22
2023-11-23T10:29:03.601Z,14.24
2023-11-23T10:31:31.895Z,14.26
2023-11-23T10:34:00.321Z,14.27
2023-11-23T10:36:28.635Z,14.29
2023-11-23T10:39:01.256Z,14.31
2023-11-23T10:41:28.510Z,14.32
2023-11-23T10:43:58.881Z,14.33
2023-11-23T10:46:26.070Z,14.37
2023-11-23T10:48:54.464Z,14.38
2023-11-23T10:51:25.540Z,14.39
2023-11-23T10:53:52.377Z,14.42
2023-11-23T10:56:24.047Z,14.44
2023-11-23T10:58:55.241Z,14.45
2023-11-23T11:01:25.019Z,14.46
2023-11-23T11:03:52.223Z,14.49
2023-11-23T11:06:22.750Z,14.50
2023-11-23T11:08:50.644Z,14.51
2023-11-23T11:11:23.139Z,14.51
2023-11-23T11:13:50.418Z,14.53
2023-11-23T11:16:18.782Z,14.55
2023-11-23T11:18:53.826Z,14.57
2023-11-23T11:21:22.202Z,14.59
2023-11-23T11:23:52.631Z,14.60
2023-11-23T11:26:26.137Z,14.63
2023-11-23T11:29:01.826Z,14.66
2023-11-23T11:31:34.989Z,14.66
2023-11-23T11:34:03.324Z,14.68
2023-11-23T11:36:32.001Z,14.70
2023-11-23T11:39:01.417Z,14.71
2023-11-23T11:41:31.042Z,14.73
2023-11-23T11:43:59.517Z,14.75
2023-11-23T11:46:29.576Z,14.75
2023-11-23T11:49:00.124Z,14.78
2023-11-23T11:51:34.155Z,14.79
2023-11-23T11:54:02.114Z,14.82
2023-11-23T11:56:29.308Z,14.82
2023-11-23T11:58:56.314Z,14.87
2023-11-23T12:01:23.503Z,14.88
2023-11-23T12:03:50.902Z,14.91
2023-11-23T12:06:22.304Z,14.92
2023-11-23T12:08:50.866Z,14.93
2023-11-23T12:11:32.045Z,14.96
2023-11-23T12:14:00.573Z,14.97
2023-11-23T12:16:36.438Z,15.00
2023-11-23T12:19:22.122Z,15.03
2023-11-23T12:21:56.909Z,15.04
2023-11-23T12:24:26.580Z,15.05
2023-11-23T12:26:54.412Z,15.09
2023-11-23T12:29:30.098Z,15.13
2023-11-23T12:32:01.031Z,15.13
2023-11-23T12:34:28.214Z,15.16
2023-11-23T12:36:58.957Z,15.17
2023-11-23T12:39:26.372Z,15.19
2023-11-23T12:41:55.389Z,15.21
2023-11-23T12:44:22.919Z,15.22
2023-11-23T12:46:50.498Z,15.24
2023-11-23T12:49:18.597Z,15.27
2023-11-23T12:51:48.253Z,15.27
2023-11-23T12:54:16.009Z,15.28
2023-11-23T12:56:43.149Z,15.28
2023-11-23T12:59:10.010Z,15.26
2023-11-23T13:01:39.669Z,15.26
2023-11-23T13:04:09.107Z,15.23
2023-11-23T13:06:37.389Z,15.21
2023-11-23T13:09:05.371Z,15.21
2023-11-23T13:11:32.929Z,15.20
2023-11-23T13:13:59.823Z,15.21
2023-11-23T13:16:26.657Z,15.22
2023-11-23T13:19:10.708Z,15.22
2023-11-23T13:21:40.553Z,15.21
2023-11-23T13:24:08.863Z,15.21
2023-11-23T13:26:36.258Z,15.21
2023-11-23T13:29:03.096Z,15.21
2023-11-23T13:31:29.924Z,15.21
2023-11-23T13:33:57.058Z,15.21
2023-11-23T13:36:24.108Z,15.21
2023-11-23T13:38:51.516Z,15.23
2023-11-23T13:41:19.623Z,15.24
2023-11-23T13:43:46.753Z,15.27
2023-11-23T13:46:15.511Z,15.28
2023-11-23T13:48:44.431Z,15.31
2023-11-23T13:51:13.887Z,15.32
2023-11-23T13:53:40.878Z,15.33
2023-11-23T13:56:11.225Z,15.33
2023-11-23T13:58:38.260Z,15.33
2023-11-23T14:01:05.140Z,15.33
2023-11-23T14:03:41.806Z,15.33
2023-11-23T14:06:09.184Z,15.31
2023-11-23T14:08:37.323Z,15.32
2023-11-23T14:11:04.680Z,15.31
2023-11-23T14:13:31.818Z,15.31
2023-11-23T14:15:59.044Z,15.31
2023-11-23T14:18:26.098Z,15.31
2023-11-23T14:20:53.023Z,15.32
2023-11-23T14:23:19.901Z,15.32
2023-11-23T14:25:46.932Z,15.31
2023-11-23T14:28:18.953Z,15.32
2023-11-23T14:30:46.442Z,15.31
2023-11-23T14:33:15.110Z,15.32
2023-11-23T14:35:42.388Z,15.30
2023-11-23T14:38:12.040Z,15.31
2023-11-23T14:40:39.471Z,15.31
2023-11-23T14:43:08.332Z,15.30
2023-11-23T14:45:35.313Z,15.31
2023-11-23T14:48:04.309Z,15.31
2023-11-23T14:50:31.212Z,15.30
2023-11-23T14:52:59.703Z,15.29
2023-11-23T14:55:26.887Z,15.29
2023-11-23T14:57:53.772Z,15.30
2023-11-23T15:00:20.826Z,15.30
2023-11-23T15:02:51.104Z,15.31
2023-11-23T15:05:19.727Z,15.31
2023-11-23T15:07:47.201Z,15.32
2023-11-23T15:10:19.890Z,15.29
2023-11-23T15:12:52.623Z,15.31
2023-11-23T15:15:20.900Z,15.31
2023-11-23T15:17:50.101Z,15.30
2023-11-23T15:20:17.509Z,15.29
2023-11-23T15:22:44.402Z,15.29
2023-11-23T15:25:11.830Z,15.25
2023-11-23T15:27:41.033Z,15.22
2023-11-23T15:30:10.558Z,15.20
2023-11-23T15:32:40.657Z,15.18
2023-11-23T15:35:08.944Z,15.12
2023-11-23T15:37:37.254Z,15.09
2023-11-23T15:40:09.741Z,15.07
2023-11-23T15:42:38.130Z,15.06
2023-11-23T15:45:06.194Z,15.04
2023-11-23T15:47:33.161Z,15.01
2023-11-23T15:50:00.008Z,14.99
2023-11-23T15:52:26.866Z,14.97
2023-11-23T15:54:53.696Z,14.95
2023-11-23T15:57:20.583Z,14.94
2023-11-23T15:59:47.474Z,14.93
2023-11-23T16:02:14.837Z,14.90
2023-11-23T16:04:43.159Z,14.91
2023-11-23T16:07:10.102Z,14.89
2023-11-23T16:09:38.161Z,14.89
2023-11-23T16:12:05.402Z,14.87
2023-11-23T16:14:32.339Z,14.86
2023-11-23T16:16:59.788Z,14.84
2023-11-23T16:19:28.692Z,14.83
2023-11-23T16:21:55.595Z,14.81
2023-11-23T16:24:22.740Z,14.81
2023-11-23T16:26:50.512Z,14.80
2023-11-23T16:29:17.386Z,14.80
2023-11-23T16:31:45.925Z,14.81
2023-11-23T16:34:14.898Z,14.81
2023-11-23T16:36:43.051Z,14.80
2023-11-23T16:39:15.673Z,14.80
2023-11-23T16:41:42.703Z,14.81
2023-11-23T16:44:11.976Z,14.82
2023-11-23T16:46:39.310Z,14.82
2023-11-23T16:49:06.732Z,14.82
2023-11-23T16:51:34.049Z,14.84
2023-11-23T16:54:01.054Z,14.84
2023-11-23T16:56:27.923Z,14.84
2023-11-23T16:58:54.769Z,14.84
2023-11-23T17:01:21.648Z,14.83
2023-11-23T17:03:51.377Z,14.84
2023-11-23T17:06:18.672Z,14.84
2023-11-23T17:08:47.017Z,14.85
2023-11-23T17:11:14.992Z,14.84
2023-11-23T17:13:41.853Z,14.84
2023-11-23T17:16:09.622Z,14.84
2023-11-23T17:18:36.611Z,14.83
2023-11-23T17:21:03.587Z,14.84
2023-11-23T17:23:31.632Z,14.83
2023-11-23T17:25:58.490Z,14.83
2023-11-23T17:28:25.339Z,14.83
2023-11-23T17:30:52.245Z,14.83
2023-11-23T17:33:20.556Z,14.82
2023-11-23T17:35:47.978Z,14.83
2023-11-23T17:38:17.317Z,14.81
2023-11-23T17:40:44.329Z,14.81
2023-11-23T17:43:11.204Z,14.81
2023-11-23T17:45:38.089Z,14.80
2023-11-23T17:48:05.472Z,14.80
2023-11-23T17:50:32.422Z,14.78
2023-11-23T17:52:59.636Z,14.78
2023-11-23T17:55:28.266Z,14.79
2023-11-23T17:57:55.822Z,14.78
2023-11-23T18:00:23.096Z,14.77
2023-11-23T18:02:50.105Z,14.78
2023-11-23T18:05:19.013Z,14.77
2023-11-23T18:07:45.857Z,14.77
2023-11-23T18:10:15.472Z,14.76
2023-11-23T18:12:43.574Z,14.77
2023-11-23T18:15:11.579Z,14.76
2023-11-23T18:17:38.901Z,14.76
2023-11-23T18:20:06.473Z,14.76
2023-11-23T18:22:33.474Z,14.75
2023-11-23T18:25:01.369Z,14.76
2023-11-23T18:27:28.393Z,14.75
2023-11-23T18:29:55.228Z,14.75
2023-11-23T18:32:22.055Z,14.73
2023-11-23T18:34:49.765Z,14.73
2023-11-23T18:37:16.656Z,14.72
2023-11-23T18:39:43.623Z,14.73
2023-11-23T18:42:12.418Z,14.73
2023-11-23T18:44:41.597Z,14.72
2023-11-23T18:47:08.527Z,14.69
2023-11-23T18:49:35.384Z,14.69
2023-11-23T18:52:03.940Z,14.67
2023-11-23T18:54:31.122Z,14.65
2023-11-23T18:56:58.120Z,14.63
2023-11-23T18:59:25.605Z,14.61
2023-11-23T19:01:55.540Z,14.58
2023-11-23T19:04:23.397Z,14.56
2023-11-23T19:06:53.388Z,14.53
2023-11-23T19:09:22.887Z,14.51
2023-11-23T19:11:51.102Z,14.49
2023-11-23T19:14:17.973Z,14.47
2023-11-23T19:16:45.020Z,14.45
2023-11-23T19:19:12.692Z,14.43
2023-11-23T19:21:40.554Z,14.41
2023-11-23T19:24:11.278Z,14.37
2023-11-23T19:26:38.377Z,14.36
2023-11-23T19:29:05.792Z,14.35
2023-11-23T19:31:35.572Z,14.33
2023-11-23T19:34:04.454Z,14.31
2023-11-23T19:36:31.879Z,14.31
2023-11-23T19:38:59.206Z,14.28
2023-11-23T19:41:27.074Z,14.23
2023-11-23T19:43:54.518Z,14.15
2023-11-23T19:46:21.878Z,14.07
2023-11-23T19:48:49.355Z,13.96
2023-11-23T19:51:27.328Z,13.85
2023-11-23T19:53:56.992Z,13.77
2023-11-23T19:56:26.098Z,13.68
2023-11-23T19:58:53.278Z,13.62
2023-11-23T20:01:21.192Z,13.57
2023-11-23T20:03:48.249Z,13.49
2023-11-23T20:06:15.264Z,13.44
2023-11-23T20:08:42.695Z,13.35
2023-11-23T20:11:09.602Z,13.28
2023-11-23T20:13:36.426Z,13.24
2023-11-23T20:16:03.690Z,13.21
2023-11-23T20:18:30.777Z,13.20
2023-11-23T20:20:57.783Z,13.15
2023-11-23T20:23:24.700Z,13.10
2023-11-23T20:25:51.562Z,13.07
2023-11-23T20:28:18.618Z,13.04
2023-11-23T20:30:45.651Z,13.01
2023-11-23T20:33:15.107Z,12.99
2023-11-23T20:35:44.126Z,12.95
2023-11-23T20:38:11.031Z,12.92
2023-11-23T20:40:38.050Z,12.92
2023-11-23T20:43:04.998Z,12.90
2023-11-23T20:45:31.858Z,12.89
2023-11-23T20:47:58.771Z,12.88
2023-11-23T20:50:25.790Z,12.86
2023-11-23T20:52:52.953Z,12.84
2023-11-23T20:55:20.779Z,12.80
2023-11-23T20:57:48.808Z,12.77
2023-11-23T21:00:17.332Z,12.76
2023-11-23T21:02:45.061Z,12.74
2023-11-23T21:05:13.191Z,12.74
2023-11-23T21:07:41.122Z,12.76
2023-11-23T21:10:09.051Z,12.76
2023-11-23T21:12:36.389Z,12.74
2023-11-23T21:15:05.167Z,12.73
2023-11-23T21:17:34.148Z,12.73
2023-11-23T21:20:01.111Z,12.75
2023-11-23T21:22:28.374Z,12.73
2023-11-23T21:24:55.302Z,12.71
2023-11-23T21:27:28.135Z,12.70
2023-11-23T21:29:54.955Z,12.69
2023-11-23T21:32:21.959Z,12.68
2023-11-23T21:34:51.675Z,12.68
2023-11-23T21:37:18.884Z,12.69
2023-11-23T21:39:45.836Z,12.71
2023-11-23T21:42:12.696Z,12.73
2023-11-23T21:44:39.536Z,12.75
2023-11-23T21:47:06.373Z,12.74
2023-11-23T21:49:33.177Z,12.74
2023-11-23T21:52:00.147Z,12.77
2023-11-23T21:54:28.778Z,12.78
2023-11-23T21:56:55.656Z,12.77
2023-11-23T21:59:23.287Z,12.77
2023-11-23T22:01:50.245Z,12.79
2023-11-23T22:04:17.162Z,12.79
2023-11-23T22:06:44.126Z,12.78
2023-11-23T22:09:12.259Z,12.71
2023-11-23T22:11:41.144Z,12.62
2023-11-23T22:14:07.944Z,12.51
2023-11-23T22:16:35.036Z,12.45
2023-11-23T22:19:02.120Z,12.39
2023-11-23T22:21:29.522Z,12.34
2023-11-23T22:23:56.610Z,12.29
2023-11-23T22:26:24.501Z,12.24
2023-11-23T22:28:52.157Z,12.18
2023-11-23T22:31:20.380Z,12.11
2023-11-23T22:33:47.532Z,12.07
2023-11-23T22:36:18.184Z,12.03
2023-11-23T22:38:51.463Z,11.98
2023-11-23T22:41:20.009Z,11.96
2023-11-23T22:43:48.723Z,11.91
2023-11-23T22:46:16.442Z,11.89
2023-11-23T22:48:43.356Z,11.87
2023-11-23T22:51:10.322Z,11.85
2023-11-23T22:53:37.178Z,11.85
2023-11-23T22:56:04.689Z,11.84
2023-11-23T22:58:31.839Z,11.82
2023-11-23T23:00:58.699Z,11.81
2023-11-23T23:03:25.726Z,11.79
2023-11-23T23:05:52.684Z,11.78
2023-11-23T23:08:20.587Z,11.76
2023-11-23T23:10:50.357Z,11.74
2023-11-23T23:13:17.255Z,11.72
2023-11-23T23:15:44.163Z,11.69
2023-11-23T23:18:12.820Z,11.67
2023-11-23T23:20:39.730Z,11.66
2023-11-23T23:23:06.710Z,11.66
2023-11-23T23:25:33.567Z,11.65
2023-11-23T23:28:00.451Z,11.65
2023-11-23T23:30:29.835Z,11.66
2023-11-23T23:32:56.748Z,11.66
2023-11-23T23:35:23.691Z,11.65
2023-11-23T23:37:50.789Z,11.66
2023-11-23T23:40:17.657Z,11.66
2023-11-23T23:42:44.730Z,11.67
2023-11-23T23:45:11.584Z,11.67
2023-11-23T23:47:39.573Z,11.67
2023-11-23T23:50:07.400Z,11.66
2023-11-23T23:52:34.489Z,11.67
2023-11-23T23:55:01.587Z,11.65
2023-11-23T23:57:28.498Z,11.63
2023-11-23T23:59:55.921Z,11.60
